Time;durP1;ratioP1;P1;durP2;ratioP2;P2;SDS_P1;SDS_P2;PMS_P1;PMS_P2;Temp;Humidity;BMP_temperature;BMP_pressure;BME280_temperature;BME280_humidity;BME280_pressure;Samples;Min_cycle;Max_cycle;Signal;HPM_P1;HPM_P2
2022/01/17 00:02:21;;;;;;;72.53;13.45;;;5.90;99.90;;;;;;5034626;28;20018;-67
2022/01/17 00:04:48;;;;;;;47.83;7.28;;;6.00;99.90;;;;;;5034595;28;20105;-67
2022/01/17 00:07:14;;;;;;;65.32;6.70;;;6.10;99.90;;;;;;5035047;28;20029;-67
2022/01/17 00:09:39;;;;;;;55.40;7.72;;;6.10;99.90;;;;;;5034576;28;20044;-66
2022/01/17 00:12:05;;;;;;;65.30;10.57;;;6.10;99.90;;;;;;5034390;28;20100;-66
2022/01/17 00:14:38;;;;;;;49.75;7.47;;;6.20;99.90;;;;;;5034467;28;20079;-66
2022/01/17 00:17:27;;;;;;;54.72;8.02;;;6.20;99.90;;;;;;5034387;28;20063;-66
2022/01/17 00:19:55;;;;;;;58.00;7.32;;;6.20;99.90;;;;;;5034614;28;20100;-66
2022/01/17 00:22:21;;;;;;;58.70;7.18;;;6.20;99.90;;;;;;5033475;28;20025;-66
2022/01/17 00:24:48;;;;;;;50.75;8.60;;;6.20;99.90;;;;;;5034239;28;20021;-66
2022/01/17 00:27:14;;;;;;;43.75;7.15;;;6.20;99.90;;;;;;5034224;28;20029;-67
2022/01/17 00:29:40;;;;;;;63.22;9.13;;;6.20;99.90;;;;;;5034171;28;20036;-67
2022/01/17 00:32:06;;;;;;;67.80;9.70;;;6.20;99.90;;;;;;5034287;28;20022;-67
2022/01/17 00:34:32;;;;;;;48.92;7.18;;;6.20;99.90;;;;;;5034065;28;20394;-67
2022/01/17 00:36:58;;;;;;;66.50;7.78;;;6.20;99.90;;;;;;5033962;28;20377;-67
2022/01/17 00:39:24;;;;;;;47.55;7.38;;;6.30;99.90;;;;;;5033984;28;20018;-67
2022/01/17 00:41:50;;;;;;;48.08;6.43;;;6.30;99.90;;;;;;5033835;28;20025;-67
2022/01/17 00:44:20;;;;;;;65.07;8.95;;;6.30;99.90;;;;;;5034215;28;20031;-67
2022/01/17 00:46:46;;;;;;;63.30;8.05;;;6.30;99.90;;;;;;5034152;28;20034;-67
2022/01/17 00:49:11;;;;;;;48.08;6.88;;;6.30;99.90;;;;;;5033817;28;20079;-67
2022/01/17 00:51:37;;;;;;;56.70;8.57;;;6.30;99.90;;;;;;5033723;28;20036;-67
2022/01/17 00:54:02;;;;;;;58.40;8.25;;;6.30;99.90;;;;;;5033715;28;20048;-67
2022/01/17 00:56:28;;;;;;;54.03;6.47;;;6.40;99.90;;;;;;5033639;28;20064;-67
2022/01/17 00:58:54;;;;;;;64.03;8.23;;;6.40;99.90;;;;;;5033952;28;20025;-67
2022/01/17 01:01:19;;;;;;;59.28;8.10;;;6.50;99.90;;;;;;5033876;28;20026;-66
2022/01/17 01:03:45;;;;;;;53.75;7.22;;;6.50;99.90;;;;;;5033811;28;20072;-66
2022/01/17 01:06:11;;;;;;;53.28;8.20;;;6.50;99.90;;;;;;5033823;28;20101;-66
2022/01/17 01:08:36;;;;;;;44.30;6.57;;;6.50;99.90;;;;;;5034065;28;20056;-66
2022/01/17 01:11:02;;;;;;;62.53;8.48;;;6.60;99.90;;;;;;5033616;28;20126;-66
2022/01/17 01:13:30;;;;;;;57.60;8.23;;;6.60;99.90;;;;;;5033371;28;20044;-66
2022/01/17 01:29:17;;;;;;;58.75;10.82;;;6.70;99.90;;;;;;5033721;28;20408;-67
2022/01/17 01:34:12;;;;;;;59.65;6.70;;;6.70;99.90;;;;;;5035425;28;20465;-67
2022/01/17 01:36:39;;;;;;;47.40;7.68;;;6.70;99.90;;;;;;5037343;28;20041;-67
2022/01/17 01:39:07;;;;;;;69.03;10.80;;;6.70;99.90;;;;;;5037617;28;20048;-67
2022/01/17 01:41:43;;;;;;;58.20;8.00;;;6.70;99.90;;;;;;5037349;28;20033;-67
2022/01/17 01:44:17;;;;;;;42.75;7.50;;;6.80;99.90;;;;;;5038084;28;20071;-66
2022/01/17 01:46:43;;;;;;;49.92;7.60;;;6.80;99.90;;;;;;5037299;28;20034;-66
2022/01/17 01:49:10;;;;;;;54.45;8.10;;;6.80;99.90;;;;;;5037456;28;20087;-66
2022/01/17 01:51:35;;;;;;;48.70;7.50;;;6.90;99.90;;;;;;5037438;28;20484;-66
2022/01/17 01:54:01;;;;;;;55.75;6.68;;;6.90;99.90;;;;;;5036960;28;20067;-66
2022/01/17 01:56:27;;;;;;;44.88;6.85;;;6.90;99.90;;;;;;5036995;28;20029;-66
2022/01/17 01:58:53;;;;;;;48.20;6.75;;;6.90;99.90;;;;;;5037248;28;20488;-66
2022/01/17 02:01:18;;;;;;;43.50;6.88;;;6.90;99.90;;;;;;5036964;28;20461;-66
2022/01/17 02:03:44;;;;;;;67.65;9.38;;;6.90;99.90;;;;;;5036942;28;20033;-66
2022/01/17 02:06:09;;;;;;;41.50;6.38;;;6.90;99.90;;;;;;5037135;28;20026;-66
2022/01/17 02:08:35;;;;;;;61.15;7.30;;;6.90;99.90;;;;;;5036799;28;20068;-66
2022/01/17 02:11:01;;;;;;;51.03;8.38;;;6.90;99.90;;;;;;5037052;28;20048;-66
2022/01/17 02:13:27;;;;;;;61.05;8.07;;;6.90;99.90;;;;;;5036903;28;20125;-66
2022/01/17 02:16:03;;;;;;;56.33;7.20;;;6.80;99.90;;;;;;5036577;28;20056;-66
2022/01/17 02:18:31;;;;;;;55.13;7.32;;;6.80;99.90;;;;;;5036416;28;20072;-66
2022/01/17 02:23:35;;;;;;;52.28;7.72;;;6.80;99.90;;;;;;5036818;28;20100;-66
2022/01/17 02:26:01;;;;;;;51.28;7.18;;;6.80;99.90;;;;;;5036508;28;20117;-66
2022/01/17 02:28:27;;;;;;;63.90;7.93;;;6.90;99.90;;;;;;5036440;28;20025;-67
2022/01/17 02:30:52;;;;;;;71.18;8.35;;;6.90;99.90;;;;;;5036674;28;20025;-68
2022/01/17 02:33:19;;;;;;;72.25;8.38;;;6.90;99.90;;;;;;5036295;28;20079;-67
2022/01/17 02:35:49;;;;;;;52.75;8.02;;;7.00;99.90;;;;;;5036294;28;20052;-67
2022/01/17 02:38:14;;;;;;;59.00;7.38;;;6.90;99.90;;;;;;5036202;28;20071;-67
2022/01/17 02:40:40;;;;;;;44.45;7.03;;;6.90;99.90;;;;;;5036527;28;20404;-68
2022/01/17 02:43:07;;;;;;;54.70;7.47;;;7.00;99.90;;;;;;5036033;28;20075;-68
2022/01/17 02:45:35;;;;;;;53.50;8.30;;;7.00;99.90;;;;;;5035315;28;20036;-66
2022/01/17 02:48:07;;;;;;;44.88;7.38;;;7.00;99.90;;;;;;5036369;28;20075;-67
2022/01/17 02:50:36;;;;;;;43.78;7.68;;;7.00;99.90;;;;;;5036386;28;20028;-66
2022/01/17 02:53:05;;;;;;;57.53;8.38;;;7.00;99.90;;;;;;5035910;28;20057;-66
2022/01/17 02:55:31;;;;;;;57.92;8.18;;;7.00;99.90;;;;;;5035932;28;20029;-67
2022/01/17 02:57:57;;;;;;;42.95;7.93;;;7.00;99.90;;;;;;5035888;28;20469;-67
2022/01/17 03:00:23;;;;;;;54.33;7.22;;;7.00;99.90;;;;;;5035931;28;20389;-68
2022/01/17 03:02:49;;;;;;;69.10;9.55;;;7.00;99.90;;;;;;5036031;28;20032;-68
2022/01/17 03:05:16;;;;;;;61.13;7.13;;;7.00;99.90;;;;;;5035766;28;20032;-67
2022/01/17 03:07:42;;;;;;;50.50;8.05;;;7.00;99.90;;;;;;5018009;28;20057;-67
2022/01/17 03:10:16;;;;;;;48.35;8.38;;;7.00;99.90;;;;;;5035973;28;20029;-67
2022/01/17 03:12:42;;;;;;;57.92;9.52;;;7.10;99.90;;;;;;5035880;28;20034;-67
2022/01/17 03:15:08;;;;;;;52.13;8.52;;;7.00;99.90;;;;;;5035572;28;20500;-67
2022/01/17 03:17:33;;;;;;;60.28;8.02;;;7.10;99.90;;;;;;5036101;28;20034;-67
2022/01/17 03:19:59;;;;;;;61.25;7.40;;;7.10;99.90;;;;;;5035783;28;20048;-66
2022/01/17 03:22:24;;;;;;;62.33;9.30;;;7.10;99.90;;;;;;5035376;28;20053;-66
2022/01/17 03:24:50;;;;;;;51.17;7.47;;;7.10;99.90;;;;;;5035412;28;20504;-66
2022/01/17 03:27:15;;;;;;;58.78;8.57;;;7.10;99.90;;;;;;5035353;28;20025;-66
2022/01/17 03:29:41;;;;;;;48.33;7.85;;;7.10;99.90;;;;;;5035325;28;20033;-66
2022/01/17 03:32:07;;;;;;;58.88;8.68;;;7.10;99.90;;;;;;5035471;28;20028;-67
2022/01/17 03:34:32;;;;;;;60.22;7.97;;;7.10;99.90;;;;;;5035154;28;20095;-67
2022/01/17 03:36:58;;;;;;;63.58;9.20;;;7.10;99.90;;;;;;5035410;28;20030;-68
2022/01/17 03:39:24;;;;;;;59.25;9.80;;;7.00;99.90;;;;;;5035696;28;20071;-68
2022/01/17 03:41:49;;;;;;;57.30;8.40;;;7.00;99.90;;;;;;5034889;28;20044;-67
2022/01/17 03:44:15;;;;;;;92.53;11.63;;;7.00;99.90;;;;;;5035028;28;20029;-68
2022/01/17 03:46:40;;;;;;;73.10;11.80;;;7.00;99.90;;;;;;5035247;28;20029;-68
2022/01/17 03:49:06;;;;;;;73.90;8.55;;;7.00;99.90;;;;;;5035765;28;20053;-68
2022/01/17 03:51:31;;;;;;;58.22;8.90;;;7.00;99.90;;;;;;5034880;28;20041;-68
2022/01/17 03:53:57;;;;;;;76.47;9.55;;;7.00;99.90;;;;;;5034764;28;20112;-68
2022/01/17 03:56:23;;;;;;;63.47;8.35;;;7.00;99.90;;;;;;5034758;28;20025;-68
2022/01/17 03:58:49;;;;;;;69.22;9.05;;;7.00;99.90;;;;;;5034756;28;20475;-67
2022/01/17 04:01:15;;;;;;;69.40;8.80;;;7.00;99.90;;;;;;5034696;28;20021;-67
2022/01/17 04:03:41;;;;;;;77.43;13.57;;;7.00;99.90;;;;;;5034583;28;20079;-67
2022/01/17 04:06:07;;;;;;;71.50;9.63;;;6.90;99.90;;;;;;5034864;28;20030;-67
2022/01/17 04:08:34;;;;;;;83.07;10.05;;;6.80;99.90;;;;;;5034871;28;20469;-67
2022/01/17 04:10:59;;;;;;;99.88;10.10;;;6.80;99.90;;;;;;5035082;28;20470;-67
2022/01/17 04:13:25;;;;;;;81.70;12.70;;;6.70;99.90;;;;;;5034404;28;20037;-67
2022/01/17 04:15:51;;;;;;;98.53;11.38;;;6.60;99.90;;;;;;5034735;28;20026;-68
2022/01/17 04:18:23;;;;;;;115.90;11.82;;;6.60;99.90;;;;;;5034330;28;20478;-68
2022/01/17 04:20:48;;;;;;;91.53;10.32;;;6.60;99.90;;;;;;5034625;28;20092;-68
2022/01/17 04:23:14;;;;;;;75.15;10.52;;;6.60;99.90;;;;;;5034280;28;20052;-68
2022/01/17 04:25:42;;;;;;;88.22;10.95;;;6.60;99.90;;;;;;5034245;28;20386;-68
2022/01/17 04:28:09;;;;;;;98.97;11.40;;;6.60;99.90;;;;;;5034185;28;20072;-68
2022/01/17 04:30:36;;;;;;;104.28;11.75;;;6.60;99.90;;;;;;5034173;28;20053;-68
2022/01/17 04:33:03;;;;;;;79.68;10.57;;;6.60;99.90;;;;;;5034085;28;20030;-68
2022/01/17 04:35:29;;;;;;;82.57;9.13;;;6.60;99.90;;;;;;5034504;28;20067;-68
2022/01/17 04:38:02;;;;;;;100.50;11.68;;;6.60;99.90;;;;;;5033957;28;20049;-68
2022/01/17 04:40:35;;;;;;;91.88;10.52;;;6.60;99.90;;;;;;5033937;28;20489;-68
2022/01/17 04:43:04;;;;;;;;;;;6.60;99.90;;;;;;5034284;28;20034;-68
2022/01/17 04:45:30;;;;;;;77.50;12.20;;;6.60;99.90;;;;;;5033931;28;19932;-68
2022/01/17 04:47:56;;;;;;;73.13;8.65;;;6.60;99.90;;;;;;5033884;28;20547;-68
2022/01/17 04:50:26;;;;;;;95.18;10.40;;;6.60;99.90;;;;;;5033821;28;20111;-68
2022/01/17 04:52:57;;;;;;;85.30;10.43;;;6.70;99.90;;;;;;5033748;28;20056;-68
2022/01/17 04:55:25;;;;;;;95.65;11.20;;;6.60;99.90;;;;;;5034311;28;20029;-68
2022/01/17 04:57:51;;;;;;;103.35;11.27;;;6.70;99.90;;;;;;5033643;28;20025;-68
2022/01/17 05:00:19;;;;;;;105.43;12.20;;;6.70;99.90;;;;;;5034503;28;20401;-67
2022/01/17 05:02:45;;;;;;;96.53;13.43;;;6.70;99.90;;;;;;5033540;28;20033;-67
2022/01/17 05:05:12;;;;;;;101.95;13.98;;;6.70;99.90;;;;;;5033819;28;20021;-66
2022/01/17 05:07:38;;;;;;;72.07;10.18;;;6.70;99.90;;;;;;5033770;28;20025;-66
2022/01/17 05:10:07;;;;;;;92.30;11.43;;;6.70;99.90;;;;;;5033033;28;20400;-66
2022/01/17 05:12:33;;;;;;;97.63;12.88;;;6.70;99.90;;;;;;5033746;28;20068;-67
2022/01/17 05:14:59;;;;;;;77.95;11.55;;;6.70;99.90;;;;;;5033736;28;20029;-67
2022/01/17 05:19:58;;;;;;;74.57;10.75;;;6.70;99.90;;;;;;5033994;28;20057;-69
2022/01/17 05:22:26;;;;;;;96.55;13.75;;;6.80;99.90;;;;;;5033340;28;20021;-68
2022/01/17 05:24:52;;;;;;;95.03;20.80;;;6.80;99.90;;;;;;5033619;28;20025;-68
2022/01/17 05:27:18;;;;;;;113.10;22.15;;;6.80;99.90;;;;;;5033295;28;20029;-68
2022/01/17 05:29:43;;;;;;;73.40;12.55;;;6.80;99.90;;;;;;5033333;28;20071;-69
2022/01/17 05:32:09;;;;;;;112.80;22.55;;;6.80;99.90;;;;;;5033417;28;20036;-69
2022/01/17 05:34:40;;;;;;;100.78;19.98;;;6.80;99.90;;;;;;5033489;28;20136;-68
2022/01/17 05:37:08;;;;;;;87.85;16.55;;;6.80;99.90;;;;;;5033339;28;20034;-67
2022/01/17 05:39:35;;;;;;;100.95;14.25;;;6.80;99.90;;;;;;5033221;28;20025;-67
2022/01/17 05:42:01;;;;;;;84.22;11.77;;;6.90;99.90;;;;;;5033010;28;20466;-68
2022/01/17 05:44:26;;;;;;;112.95;12.25;;;6.80;99.90;;;;;;5033445;28;20076;-68
2022/01/17 05:46:52;;;;;;;103.85;12.90;;;6.80;99.90;;;;;;5033128;28;20032;-68
2022/01/17 05:49:18;;;;;;;80.20;11.07;;;6.90;99.90;;;;;;5033129;28;20088;-68
2022/01/17 05:51:43;;;;;;;100.43;11.95;;;6.90;99.90;;;;;;5033068;28;20026;-69
2022/01/17 05:54:09;;;;;;;99.57;10.98;;;6.90;99.90;;;;;;5033042;28;20029;-67
2022/01/17 05:56:34;;;;;;;90.13;11.40;;;7.00;99.90;;;;;;5032954;28;20038;-67
2022/01/17 05:59:00;;;;;;;106.70;11.40;;;7.00;99.90;;;;;;5033035;28;20366;-67
2022/01/17 06:01:25;;;;;;;106.53;12.95;;;7.00;99.90;;;;;;5033019;28;20028;-67
2022/01/17 06:03:51;;;;;;;97.07;12.30;;;7.00;99.90;;;;;;5033208;28;20022;-67
2022/01/17 06:06:17;;;;;;;99.75;12.27;;;7.00;99.90;;;;;;5033240;28;20487;-69
2022/01/17 06:08:42;;;;;;;108.50;15.48;;;7.00;99.90;;;;;;5032938;28;20026;-69
2022/01/17 06:11:08;;;;;;;105.85;13.32;;;7.00;99.90;;;;;;5032920;28;20033;-69
2022/01/17 06:13:34;;;;;;;105.70;12.05;;;7.00;99.90;;;;;;5033130;28;20033;-69
2022/01/17 06:16:00;;;;;;;95.20;13.43;;;7.00;99.90;;;;;;5032908;28;20022;-69
2022/01/17 06:18:25;;;;;;;88.10;10.57;;;7.10;99.90;;;;;;5032764;28;20038;-67
2022/01/17 06:20:51;;;;;;;115.15;14.77;;;7.10;99.90;;;;;;5035812;28;20033;-67
2022/01/17 06:23:16;;;;;;;115.05;16.00;;;7.10;99.90;;;;;;5036503;28;20029;-67
2022/01/17 06:25:42;;;;;;;109.93;15.93;;;7.20;99.90;;;;;;5036529;28;20481;-67
2022/01/17 06:28:08;;;;;;;122.20;17.98;;;7.20;99.90;;;;;;5036465;28;20049;-67
2022/01/17 06:30:33;;;;;;;113.78;15.18;;;7.20;99.90;;;;;;5036688;28;20465;-67
2022/01/17 06:32:59;;;;;;;126.20;14.65;;;7.20;99.90;;;;;;5036322;28;20124;-68
2022/01/17 06:35:25;;;;;;;121.78;15.30;;;7.20;99.90;;;;;;5036863;28;20167;-69
2022/01/17 06:37:51;;;;;;;108.47;13.45;;;7.20;99.90;;;;;;5036764;28;20072;-69
2022/01/17 06:40:18;;;;;;;123.93;17.30;;;7.30;99.90;;;;;;5036520;28;20025;-69
2022/01/17 06:42:44;;;;;;;119.72;16.00;;;7.30;99.90;;;;;;5035972;28;20034;-69
2022/01/17 06:45:12;;;;;;;111.60;14.60;;;7.30;99.90;;;;;;5036727;28;20355;-69
2022/01/17 06:47:39;;;;;;;109.57;17.50;;;7.40;99.90;;;;;;5036135;28;20473;-70
2022/01/17 06:50:06;;;;;;;54.50;6.95;;;7.30;99.90;;;;;;5036077;28;20033;-70
2022/01/17 06:52:32;;;;;;;38.00;6.88;;;6.90;99.90;;;;;;5035948;28;20374;-69
2022/01/17 06:54:58;;;;;;;54.85;6.20;;;6.70;99.90;;;;;;5036026;28;20029;-68
2022/01/17 06:57:25;;;;;;;56.42;7.57;;;6.60;99.90;;;;;;5036382;28;20393;-68
2022/01/17 06:59:51;;;;;;;52.78;7.03;;;6.60;99.90;;;;;;5036182;28;20382;-68
2022/01/17 07:02:17;;;;;;;51.90;5.65;;;6.60;99.90;;;;;;5035775;28;20072;-68
2022/01/17 07:04:42;;;;;;;33.47;4.88;;;6.50;99.90;;;;;;5018342;28;20470;-68
2022/01/17 07:07:08;;;;;;;55.17;6.50;;;6.40;99.90;;;;;;5018049;28;20017;-68
2022/01/17 07:09:36;;;;;;;46.83;6.85;;;6.30;99.90;;;;;;5035752;28;20026;-70
2022/01/17 07:12:02;;;;;;;46.65;6.25;;;6.30;99.90;;;;;;5036082;28;20040;-70
2022/01/17 07:14:29;;;;;;;47.55;5.15;;;6.30;99.90;;;;;;5035643;28;20032;-69
2022/01/17 07:16:55;;;;;;;39.38;6.45;;;6.30;99.90;;;;;;5035538;28;20036;-69
2022/01/17 07:19:20;;;;;;;48.95;6.20;;;6.30;99.90;;;;;;5036071;28;20021;-69
2022/01/17 07:21:46;;;;;;;46.10;7.25;;;6.30;99.90;;;;;;5035456;28;20024;-69
2022/01/17 07:24:12;;;;;;;38.67;5.68;;;6.30;99.90;;;;;;5035498;28;20033;-68
2022/01/17 07:26:37;;;;;;;47.75;6.35;;;6.20;99.90;;;;;;5035958;28;20026;-69
2022/01/17 07:29:05;;;;;;;27.73;4.75;;;6.20;99.90;;;;;;5035357;28;20108;-69
2022/01/17 07:31:32;;;;;;;50.30;6.15;;;6.10;99.90;;;;;;5034774;28;20068;-69
2022/01/17 07:33:58;;;;;;;47.75;6.28;;;6.00;99.90;;;;;;5035191;28;20056;-69
2022/01/17 07:36:23;;;;;;;39.35;5.25;;;6.00;99.90;;;;;;5035191;28;20049;-69
2022/01/17 07:38:49;;;;;;;64.40;6.45;;;6.00;99.90;;;;;;5035097;28;20528;-69
2022/01/17 07:41:16;;;;;;;36.83;5.03;;;5.90;99.90;;;;;;5035348;28;20021;-69
2022/01/17 07:43:42;;;;;;;31.88;6.57;;;5.90;99.90;;;;;;5035511;28;20061;-67
2022/01/17 07:46:19;;;;;;;33.83;4.88;;;5.90;99.90;;;;;;5035066;28;20017;-67
2022/01/17 07:52:06;;;;;;;;;;;5.90;99.90;;;;;;4974451;28;20038;-67
2022/01/17 07:54:37;;;;;;;29.63;4.68;;;5.90;99.90;;;;;;4974425;28;19902;-67
2022/01/17 07:57:03;;;;;;;39.40;6.43;;;5.90;99.90;;;;;;5011898;28;20092;-67
2022/01/17 07:59:29;;;;;;;33.38;5.43;;;5.90;99.90;;;;;;5034981;28;20021;-67
2022/01/17 08:01:55;;;;;;;34.05;5.15;;;5.80;99.90;;;;;;5034657;28;20478;-68
2022/01/17 08:04:20;;;;;;;43.58;4.30;;;5.70;99.90;;;;;;5034966;28;20041;-67
2022/01/17 08:06:48;;;;;;;35.40;4.63;;;5.70;99.90;;;;;;5034651;28;20026;-68
2022/01/17 08:09:17;;;;;;;35.42;5.10;;;5.70;99.90;;;;;;5034585;28;20068;-68
2022/01/17 08:11:42;;;;;;;41.13;5.45;;;5.70;99.90;;;;;;5034500;28;20025;-68
2022/01/17 08:14:08;;;;;;;49.55;6.18;;;5.70;99.90;;;;;;5034512;28;20568;-68
2022/01/17 08:16:34;;;;;;;47.60;5.50;;;5.70;99.90;;;;;;5034715;28;20032;-68
2022/01/17 08:18:59;;;;;;;38.13;5.68;;;5.70;99.90;;;;;;5034411;28;20025;-67
2022/01/17 08:21:25;;;;;;;41.25;6.15;;;5.70;99.90;;;;;;5034318;28;20037;-67
2022/01/17 08:23:53;;;;;;;47.88;6.22;;;5.80;99.90;;;;;;5034307;28;20492;-67
2022/01/17 08:26:19;;;;;;;37.22;5.45;;;5.80;99.90;;;;;;5034282;28;20029;-68
2022/01/17 08:28:45;;;;;;;52.72;8.55;;;5.80;99.90;;;;;;5034471;28;20087;-67
2022/01/17 08:31:11;;;;;;;52.53;6.40;;;5.80;99.90;;;;;;5034207;28;20021;-67
2022/01/17 08:33:36;;;;;;;39.53;5.25;;;5.90;99.90;;;;;;5034067;28;20061;-67
2022/01/17 08:36:02;;;;;;;44.00;5.35;;;5.90;99.90;;;;;;5034074;28;20033;-67
2022/01/17 08:38:29;;;;;;;28.90;4.78;;;6.00;99.90;;;;;;5034000;28;20030;-67
2022/01/17 08:40:58;;;;;;;34.05;4.85;;;6.10;99.90;;;;;;5034036;28;20056;-67
2022/01/17 08:43:24;;;;;;;35.20;4.38;;;6.30;99.90;;;;;;5032975;28;20025;-67
2022/01/17 08:45:51;;;;;;;39.17;5.25;;;6.30;99.90;;;;;;5034256;28;20022;-67
2022/01/17 08:48:16;;;;;;;30.65;4.97;;;6.30;99.90;;;;;;5033877;28;20025;-67
2022/01/17 08:50:44;;;;;;;44.78;6.22;;;6.30;99.90;;;;;;5033821;28;20028;-67
2022/01/17 08:53:13;;;;;;;39.42;5.22;;;6.20;99.90;;;;;;5033739;28;20025;-67
2022/01/17 08:55:39;;;;;;;31.98;4.43;;;6.30;99.90;;;;;;5033784;28;20104;-67
2022/01/17 08:58:06;;;;;;;46.65;5.57;;;6.40;99.90;;;;;;5033953;28;20458;-68
2022/01/17 09:00:32;;;;;;;34.42;5.53;;;6.50;99.90;;;;;;5033817;28;20049;-67
2022/01/17 09:03:01;;;;;;;44.00;6.22;;;6.30;99.90;;;;;;5033907;28;20458;-67
2022/01/17 09:05:27;;;;;;;40.08;5.63;;;6.20;99.90;;;;;;5033630;28;20049;-67
2022/01/17 09:07:52;;;;;;;46.42;5.32;;;5.80;99.90;;;;;;5034147;28;20032;-67
2022/01/17 09:10:18;;;;;;;57.65;6.68;;;5.40;99.90;;;;;;5033534;28;20025;-67
2022/01/17 09:12:44;;;;;;;60.55;8.00;;;5.10;99.90;;;;;;5033489;28;20112;-67
2022/01/17 09:15:10;;;;;;;52.10;6.85;;;4.90;99.90;;;;;;5033504;28;20105;-67
2022/01/17 09:17:36;;;;;;;64.10;7.00;;;4.80;99.90;;;;;;5015703;28;20032;-67
2022/01/17 09:20:03;;;;;;;50.45;6.80;;;4.80;99.90;;;;;;5033496;28;20034;-67
2022/01/17 09:22:29;;;;;;;44.08;7.32;;;4.80;99.90;;;;;;5033287;28;20440;-68
2022/01/17 09:24:55;;;;;;;41.50;6.30;;;4.80;99.90;;;;;;5033470;28;20104;-67
2022/01/17 09:27:21;;;;;;;55.92;7.05;;;4.70;99.90;;;;;;5033363;28;20100;-67
2022/01/17 09:29:47;;;;;;;66.68;9.60;;;4.80;99.90;;;;;;5033597;28;20111;-67
2022/01/17 09:32:14;;;;;;;62.65;7.32;;;4.80;99.90;;;;;;5033479;28;20034;-67
2022/01/17 09:34:41;;;;;;;61.13;7.45;;;4.90;99.90;;;;;;5033542;28;20021;-67
2022/01/17 09:37:08;;;;;;;62.63;8.02;;;4.90;99.90;;;;;;5033287;28;20029;-67
2022/01/17 09:39:35;;;;;;;57.83;7.50;;;5.00;99.90;;;;;;5033103;28;20032;-67
2022/01/17 09:42:01;;;;;;;58.90;8.40;;;5.00;99.90;;;;;;5033258;28;20043;-67
2022/01/17 09:44:27;;;;;;;73.75;8.80;;;5.10;99.90;;;;;;5033739;28;20462;-67
2022/01/17 09:46:55;;;;;;;65.53;8.65;;;5.20;99.90;;;;;;5033156;28;20095;-67
2022/01/17 09:49:33;;;;;;;78.25;8.93;;;5.20;99.90;;;;;;5033377;28;20504;-67
2022/01/17 09:52:07;;;;;;;76.68;9.50;;;5.20;99.90;;;;;;5033354;28;20029;-67
2022/01/17 09:54:35;;;;;;;;;;;5.30;99.90;;;;;;5034868;28;20025;-67
2022/01/17 09:57:06;;;;;;;83.10;8.82;;;5.30;99.90;;;;;;5037036;28;19909;-67
2022/01/17 09:59:36;;;;;;;63.55;10.63;;;5.30;99.90;;;;;;5037609;28;20030;-68
2022/01/17 10:02:03;;;;;;;79.28;9.98;;;5.40;99.90;;;;;;5037236;28;20021;-67
2022/01/17 10:04:29;;;;;;;86.22;9.23;;;5.40;99.90;;;;;;5037216;28;20052;-67
2022/01/17 10:06:57;;;;;;;62.80;8.10;;;5.50;99.90;;;;;;5037156;28;20407;-68
2022/01/17 10:09:25;;;;;;;74.32;9.32;;;5.50;99.90;;;;;;5036907;28;20100;-67
2022/01/17 10:12:07;;;;;;;59.58;9.82;;;5.60;99.90;;;;;;5036751;28;20436;-67
2022/01/17 10:14:45;;;;;;;71.45;8.43;;;5.70;99.90;;;;;;5037049;28;20056;-67
2022/01/17 10:17:17;;;;;;;60.08;9.50;;;5.70;99.90;;;;;;5036683;28;20075;-68
2022/01/17 10:19:44;;;;;;;60.10;8.32;;;5.70;99.90;;;;;;5036926;28;20017;-68
2022/01/17 10:22:17;;;;;;;79.10;10.07;;;5.80;99.90;;;;;;5036495;28;20028;-68
2022/01/17 10:25:06;;;;;;;81.00;10.18;;;5.80;99.90;;;;;;5036905;28;20028;-68
2022/01/17 10:28:11;;;;;;;76.10;10.88;;;5.90;99.90;;;;;;5037101;28;20393;-69
2022/01/17 10:36:19;;;;;;;76.70;10.65;;;5.90;99.90;;;;;;4995581;28;20145;-67
2022/01/17 10:38:45;;;;;;;83.75;13.57;;;6.00;99.90;;;;;;5019697;28;20049;-67
2022/01/17 10:41:13;;;;;;;62.67;9.88;;;6.00;99.90;;;;;;5036240;28;20032;-67
2022/01/17 10:43:42;;;;;;;72.93;8.88;;;6.00;99.90;;;;;;5036070;28;20087;-67
2022/01/17 10:46:10;;;;;;;55.83;9.68;;;6.10;99.90;;;;;;5036411;28;20080;-67
2022/01/17 10:48:41;;;;;;;61.75;11.43;;;6.30;99.90;;;;;;5036344;28;20025;-67
2022/01/17 10:51:08;;;;;;;64.47;8.45;;;6.40;99.90;;;;;;5036706;28;20025;-67
2022/01/17 10:53:33;;;;;;;44.53;8.38;;;6.20;99.90;;;;;;5036015;28;20017;-67
2022/01/17 10:56:05;;;;;;;73.78;10.00;;;6.20;99.90;;;;;;5035978;28;20108;-67
2022/01/17 10:58:32;;;;;;;56.05;9.55;;;6.20;99.90;;;;;;5036204;28;20026;-67
2022/01/17 11:01:04;;;;;;;77.80;11.52;;;6.20;99.90;;;;;;5036531;28;20014;-68
2022/01/17 11:03:35;;;;;;;56.28;9.60;;;6.20;99.90;;;;;;5036382;28;20458;-68
2022/01/17 11:06:06;;;;;;;55.88;9.40;;;6.20;99.90;;;;;;5035302;28;20093;-68
2022/01/17 11:08:34;;;;;;;61.30;8.50;;;6.20;99.90;;;;;;5036477;28;20472;-68
2022/01/17 11:11:03;;;;;;;56.05;8.43;;;6.30;99.90;;;;;;5035729;28;20466;-68
2022/01/17 11:13:32;;;;;;;49.20;8.50;;;6.20;99.90;;;;;;5035693;28;20041;-68
2022/01/17 11:16:00;;;;;;;71.65;8.48;;;6.20;99.90;;;;;;5035907;28;20104;-67
2022/01/17 11:18:28;;;;;;;59.97;9.55;;;6.20;99.90;;;;;;5035780;28;20517;-68
2022/01/17 11:21:10;;;;;;;46.55;6.93;;;6.10;99.90;;;;;;5035804;28;20534;-68
2022/01/17 11:23:38;;;;;;;64.57;9.13;;;6.10;99.90;;;;;;5035447;28;20022;-68
2022/01/17 11:26:05;;;;;;;68.22;9.82;;;6.00;99.90;;;;;;5035957;28;20037;-68
2022/01/17 11:28:33;;;;;;;57.03;6.93;;;6.00;99.90;;;;;;5035706;28;20071;-68
2022/01/17 11:31:02;;;;;;;58.35;8.30;;;5.90;99.90;;;;;;5035621;28;20033;-67
2022/01/17 11:33:28;;;;;;;72.85;9.30;;;5.80;99.90;;;;;;5035167;28;20583;-67
2022/01/17 11:35:55;;;;;;;67.70;9.25;;;5.80;99.90;;;;;;5035607;28;20029;-67
2022/01/17 11:38:27;;;;;;;50.80;7.72;;;5.80;99.90;;;;;;5035416;28;20036;-67
2022/01/17 11:40:54;;;;;;;57.30;9.80;;;5.70;99.90;;;;;;5035207;28;20040;-68
2022/01/17 11:43:35;;;;;;;68.28;8.85;;;5.80;99.90;;;;;;5035044;28;20560;-67
2022/01/17 11:46:25;;;;;;;61.10;9.48;;;5.80;99.90;;;;;;5035425;28;20025;-68
2022/01/17 11:48:50;;;;;;;50.05;6.70;;;5.80;99.90;;;;;;5034915;28;20021;-67
2022/01/17 11:51:16;;;;;;;79.60;8.85;;;5.80;99.90;;;;;;5034989;28;20389;-67
2022/01/17 11:53:45;;;;;;;45.05;8.45;;;5.80;99.90;;;;;;5035099;28;20028;-67
2022/01/17 11:56:14;;;;;;;84.28;8.68;;;5.90;99.90;;;;;;5034835;28;20025;-69
2022/01/17 11:58:46;;;;;;;45.30;7.10;;;6.00;99.90;;;;;;5034782;28;20017;-69
2022/01/17 12:01:20;;;;;;;50.78;6.97;;;6.20;99.90;;;;;;5035137;28;20421;-68
2022/01/17 12:03:49;;;;;;;65.30;9.80;;;6.30;99.90;;;;;;5034732;28;20358;-68
2022/01/17 12:06:25;;;;;;;49.38;6.93;;;6.30;99.90;;;;;;5034732;28;20186;-69
2022/01/17 12:09:24;;;;;;;73.75;8.50;;;6.20;99.90;;;;;;5034629;28;20029;-69
2022/01/17 12:12:11;;;;;;;66.40;9.30;;;6.10;99.90;;;;;;5034559;28;20029;-70
2022/01/17 12:14:44;;;;;;;48.72;7.80;;;6.00;99.90;;;;;;5034763;28;20389;-68
2022/01/17 12:17:19;;;;;;;61.13;9.95;;;5.90;99.90;;;;;;5034467;28;20025;-68
2022/01/17 12:20:03;;;;;;;60.65;8.60;;;5.90;99.90;;;;;;5034440;28;20026;-68
2022/01/17 12:22:47;;;;;;;47.90;7.78;;;6.10;99.90;;;;;;5034486;28;20072;-68
2022/01/17 12:25:25;;;;;;;60.38;8.63;;;6.10;99.90;;;;;;5034656;28;20021;-68
2022/01/17 12:28:03;;;;;;;66.68;8.05;;;6.30;99.90;;;;;;5034265;28;20021;-68
2022/01/17 12:30:52;;;;;;;47.08;10.00;;;6.30;99.90;;;;;;5034564;28;20031;-69
2022/01/17 12:33:27;;;;;;;54.45;8.48;;;6.30;99.90;;;;;;5034393;28;20425;-68
2022/01/17 12:35:54;;;;;;;47.33;7.57;;;6.20;99.90;;;;;;5034178;28;20095;-68
2022/01/17 12:38:40;;;;;;;73.30;9.23;;;6.10;99.90;;;;;;5034054;28;20033;-68
2022/01/17 12:41:26;;;;;;;72.18;9.65;;;6.10;99.90;;;;;;5034340;28;20025;-68
2022/01/17 12:43:52;;;;;;;56.88;7.13;;;6.20;99.90;;;;;;5033711;28;20116;-67
2022/01/17 12:46:17;;;;;;;57.72;8.25;;;6.30;99.90;;;;;;5033973;28;20045;-67
2022/01/17 12:48:48;;;;;;;56.80;7.40;;;6.40;99.90;;;;;;5033959;28;20393;-68
2022/01/17 12:51:14;;;;;;;61.50;8.27;;;6.50;99.90;;;;;;5034206;28;20424;-67
2022/01/17 12:53:49;;;;;;;59.35;10.32;;;6.40;99.90;;;;;;5034083;28;20025;-67
2022/01/17 12:56:14;;;;;;;64.15;8.65;;;6.30;99.90;;;;;;5033837;28;20096;-67
2022/01/17 12:58:40;;;;;;;58.22;9.30;;;6.40;99.90;;;;;;5033723;28;20030;-68
2022/01/17 13:01:12;;;;;;;67.82;9.02;;;6.40;99.90;;;;;;5033719;28;20022;-68
2022/01/17 13:03:40;;;;;;;61.40;9.20;;;6.40;99.90;;;;;;5033629;28;20025;-67
2022/01/17 13:06:13;;;;;;;67.57;8.23;;;6.40;99.90;;;;;;5033691;28;20029;-68
2022/01/17 13:08:42;;;;;;;61.65;8.23;;;6.30;99.90;;;;;;5034244;28;20101;-68
2022/01/17 13:11:13;;;;;;;64.07;9.60;;;6.20;99.90;;;;;;5033645;28;20393;-67
2022/01/17 13:14:01;;;;;;;58.80;7.68;;;6.20;99.90;;;;;;5033598;28;20032;-67
2022/01/17 13:16:30;;;;;;;53.83;7.00;;;6.10;99.90;;;;;;5033779;28;20026;-67
2022/01/17 13:18:57;;;;;;;39.67;6.55;;;6.10;99.90;;;;;;5015733;28;20032;-68